createdAt,value
2022-08-14T00:00:20.466Z,2.2
2022-08-14T00:01:30.308Z,2.9
2022-08-14T00:02:39.849Z,2.7
2022-08-14T00:03:48.520Z,2
2022-08-14T00:04:59.252Z,3.6
2022-08-14T00:06:14.227Z,2.1
2022-08-14T00:07:19.730Z,1.7
2022-08-14T00:08:42.126Z,1.2
2022-08-14T00:09:56.527Z,2.4
2022-08-14T00:10:52.349Z,2.5
2022-08-14T00:12:00.591Z,2
2022-08-14T00:13:09.279Z,3.4
2022-08-14T00:14:19.951Z,2
2022-08-14T00:15:29.787Z,1.7
2022-08-14T00:16:40.712Z,2.3
2022-08-14T00:17:52.955Z,1.2
2022-08-14T00:19:05.777Z,2
2022-08-14T00:20:11.558Z,1.5
2022-08-14T00:21:22.416Z,1.8
2022-08-14T00:22:44.803Z,2
2022-08-14T00:23:42.638Z,1.8
2022-08-14T00:24:52.282Z,2.5
2022-08-14T00:26:06.385Z,1.8
2022-08-14T00:27:11.661Z,1.3
2022-08-14T00:28:21.325Z,1.4
2022-08-14T00:29:33.065Z,1.8
2022-08-14T00:30:42.769Z,1.4
2022-08-14T00:31:53.860Z,1.6
2022-08-14T00:33:14.578Z,1.7
2022-08-14T00:34:35.720Z,2.7
2022-08-14T00:36:33.657Z,2
2022-08-14T00:36:48.370Z,2.7
2022-08-14T00:37:44.856Z,1.7
2022-08-14T00:38:54.530Z,1.6
2022-08-14T00:40:05.525Z,2.1
2022-08-14T00:41:13.898Z,2.5
2022-08-14T00:42:53.102Z,2.2
2022-08-14T00:43:34.204Z,2
2022-08-14T00:44:43.933Z,1.5
2022-08-14T00:45:52.929Z,1.6
2022-08-14T00:47:01.443Z,1.9
2022-08-14T00:48:11.129Z,2.9
2022-08-14T00:49:21.099Z,2.9
2022-08-14T00:50:29.489Z,2.6
2022-08-14T00:51:39.169Z,2.6
2022-08-14T00:52:50.999Z,2.8
2022-08-14T00:53:57.569Z,2.4
2022-08-14T00:55:06.217Z,3.6
2022-08-14T00:56:15.869Z,2.9
2022-08-14T00:57:25.529Z,2.8
2022-08-14T00:58:34.182Z,1.8
2022-08-14T00:59:43.857Z,1.8
2022-08-14T01:00:57.613Z,2
2022-08-14T01:02:03.220Z,2.6
2022-08-14T01:03:13.923Z,1.7
2022-08-14T01:04:37.463Z,2.7
2022-08-14T01:05:41.969Z,2.5
2022-08-14T01:06:44.856Z,2.3
2022-08-14T01:07:56.933Z,2.4
2022-08-14T01:09:02.191Z,3
2022-08-14T01:10:12.896Z,2.1
2022-08-14T01:11:22.531Z,2
2022-08-14T01:12:32.194Z,2.3
2022-08-14T01:13:43.361Z,3.1
2022-08-14T01:14:52.583Z,2.9
2022-08-14T01:16:03.226Z,2
2022-08-14T01:17:13.902Z,1.7
2022-08-14T01:18:24.600Z,2
2022-08-14T01:19:34.263Z,1.9
2022-08-14T01:20:43.091Z,2.3
2022-08-14T01:21:53.623Z,1.9
2022-08-14T01:23:01.412Z,1.3
2022-08-14T01:24:12.075Z,1.3
2022-08-14T01:25:22.749Z,1.3
2022-08-14T01:26:34.493Z,2
2022-08-14T01:27:53.489Z,1.5
2022-08-14T01:28:56.381Z,2.2
2022-08-14T01:30:04.830Z,1.7
2022-08-14T01:31:15.168Z,1.5
2022-08-14T01:32:24.874Z,1.2
2022-08-14T01:33:39.544Z,3
2022-08-14T01:35:16.270Z,1.7
2022-08-14T01:36:04.126Z,2.7
2022-08-14T01:37:07.580Z,3
2022-08-14T01:38:18.305Z,2.2
2022-08-14T01:39:27.064Z,2.5
2022-08-14T01:40:41.177Z,2.6
2022-08-14T01:41:48.272Z,2.4
2022-08-14T01:42:56.946Z,1.8
2022-08-14T01:44:06.738Z,1.6
2022-08-14T01:45:17.832Z,1.8
2022-08-14T01:46:33.290Z,1.2
2022-08-14T01:47:37.715Z,2.4
2022-08-14T01:48:46.439Z,2.1
2022-08-14T01:50:00.188Z,1.8
2022-08-14T01:51:05.824Z,2
2022-08-14T01:52:33.808Z,2.6
2022-08-14T01:53:29.724Z,2.2
2022-08-14T01:54:38.335Z,1.3
2022-08-14T01:55:47.456Z,1.5
2022-08-14T01:56:57.131Z,2.6
2022-08-14T01:58:19.101Z,1.2
2022-08-14T01:59:18.094Z,2.8
2022-08-14T02:00:27.557Z,2.9
2022-08-14T02:01:36.713Z,1.8
2022-08-14T02:02:46.546Z,2.6
2022-08-14T02:03:57.409Z,2
2022-08-14T02:05:06.713Z,1.4
2022-08-14T02:06:32.761Z,1.3
2022-08-14T02:07:34.745Z,1.3
2022-08-14T02:08:36.731Z,1.4
2022-08-14T02:09:55.756Z,2.5
2022-08-14T02:10:57.022Z,1.1
2022-08-14T02:12:05.680Z,1.4
2022-08-14T02:13:13.393Z,1.6
2022-08-14T02:14:30.857Z,1.8
2022-08-14T02:15:32.697Z,2.2
2022-08-14T02:16:41.578Z,2.1
2022-08-14T02:17:52.105Z,1.7
2022-08-14T02:19:00.918Z,1.7
2022-08-14T02:20:09.612Z,1.3
2022-08-14T02:21:23.087Z,1.6
2022-08-14T02:22:32.876Z,2.4
2022-08-14T02:23:39.772Z,1.4
2022-08-14T02:24:48.464Z,1.4
2022-08-14T02:25:57.138Z,2.9
2022-08-14T02:28:19.493Z,1.6
2022-08-14T02:28:26.148Z,2.5
2022-08-14T02:29:56.579Z,1.5
2022-08-14T02:30:39.919Z,2
2022-08-14T02:31:47.571Z,2.3
2022-08-14T02:32:57.245Z,2
2022-08-14T02:34:05.867Z,2.2
2022-08-14T02:35:14.519Z,2.2
2022-08-14T02:37:03.202Z,2.1
2022-08-14T02:37:45.718Z,3.4
2022-08-14T02:38:44.498Z,2.8
2022-08-14T02:39:53.225Z,2.4
2022-08-14T02:41:01.855Z,1.7
2022-08-14T02:42:12.881Z,1.9
2022-08-14T02:43:22.500Z,2.3
2022-08-14T02:44:30.857Z,2.2
2022-08-14T02:45:44.307Z,3
2022-08-14T02:46:51.184Z,2.7
2022-08-14T02:48:01.877Z,2
2022-08-14T02:49:11.549Z,2.5
2022-08-14T02:50:20.219Z,1.7
2022-08-14T02:51:30.856Z,2.6
2022-08-14T02:52:56.949Z,2.3
2022-08-14T02:53:50.217Z,1.7
2022-08-14T02:54:59.874Z,2.3
2022-08-14T02:56:10.192Z,1.6
2022-08-14T02:57:39.657Z,2.7
2022-08-14T02:58:31.168Z,2.3
2022-08-14T02:59:38.541Z,1.2
2022-08-14T03:00:49.215Z,2.2
2022-08-14T03:01:57.994Z,1.9
2022-08-14T03:03:08.670Z,1.3
2022-08-14T03:04:20.489Z,1.4
2022-08-14T03:05:27.922Z,2.3
2022-08-14T03:06:49.243Z,2.4
2022-08-14T03:07:49.223Z,1.5
2022-08-14T03:08:58.901Z,1.6
2022-08-14T03:10:24.901Z,1.5
2022-08-14T03:11:19.341Z,1.6
2022-08-14T03:12:31.926Z,2.2
2022-08-14T03:13:39.623Z,1.4
2022-08-14T03:14:48.306Z,2.4
2022-08-14T03:15:58.374Z,1.8
2022-08-14T03:17:07.646Z,1.3
2022-08-14T03:18:18.452Z,2.8
2022-08-14T03:19:28.009Z,2.6
2022-08-14T03:20:35.667Z,2.3
2022-08-14T03:21:45.355Z,2.6
2022-08-14T03:22:55.045Z,2.2
2022-08-14T03:24:02.744Z,1.8
2022-08-14T03:25:13.446Z,1.5
2022-08-14T03:26:30.014Z,2.4
2022-08-14T03:27:35.230Z,1.6
2022-08-14T03:28:44.454Z,0.9
2022-08-14T03:29:52.124Z,2.1
2022-08-14T03:31:01.796Z,1.7
2022-08-14T03:32:10.462Z,1.5
2022-08-14T03:33:20.142Z,4.7
2022-08-14T03:34:47.446Z,1.6
2022-08-14T03:36:00.543Z,2.4
2022-08-14T03:37:29.505Z,1.8
2022-08-14T03:39:11.239Z,1
2022-08-14T03:39:21.275Z,1.8
2022-08-14T03:40:23.365Z,1.4
2022-08-14T03:41:33.096Z,1.3
2022-08-14T03:42:40.721Z,2.5
2022-08-14T03:43:57.341Z,2.1
2022-08-14T03:45:17.904Z,1.6
2022-08-14T03:46:39.307Z,1.7
2022-08-14T03:47:22.490Z,1.8
2022-08-14T03:48:40.186Z,1.4
2022-08-14T03:49:43.823Z,1.8
2022-08-14T03:50:52.527Z,1.9
2022-08-14T03:52:02.232Z,2.8
2022-08-14T03:53:11.889Z,2.5
2022-08-14T03:54:21.513Z,2.2
2022-08-14T03:55:31.228Z,2.4
2022-08-14T03:56:40.891Z,2.3
2022-08-14T03:57:48.537Z,2
2022-08-14T03:58:59.195Z,1.7
2022-08-14T04:00:07.930Z,2.4
2022-08-14T04:01:16.645Z,2.3
2022-08-14T04:02:32.079Z,2.6
2022-08-14T04:03:37.313Z,2.2
2022-08-14T04:04:44.645Z,1.7
2022-08-14T04:05:55.340Z,1.3
2022-08-14T04:07:04.220Z,2
2022-08-14T04:08:23.268Z,2.3
2022-08-14T04:09:26.871Z,1.4
2022-08-14T04:10:33.541Z,2.3
2022-08-14T04:11:43.264Z,1.5
2022-08-14T04:12:52.927Z,1.8
2022-08-14T04:14:01.593Z,1.8
2022-08-14T04:15:11.293Z,1.3
2022-08-14T04:16:19.965Z,3.1
2022-08-14T04:17:30.645Z,1.5
2022-08-14T04:18:40.368Z,1.5
2022-08-14T04:19:49.019Z,1.3
2022-08-14T04:20:58.784Z,4
2022-08-14T04:22:08.488Z,1.3
2022-08-14T04:23:23.490Z,1.7
2022-08-14T04:24:29.777Z,1.9
2022-08-14T04:25:39.437Z,1.8
2022-08-14T04:26:49.130Z,2.3
2022-08-14T04:28:01.985Z,2.8
2022-08-14T04:29:14.599Z,1.5
2022-08-14T04:30:22.247Z,1.4
2022-08-14T04:32:59.458Z,2.3
2022-08-14T04:32:59.597Z,2.2
2022-08-14T04:33:52.183Z,2.4
2022-08-14T04:34:59.867Z,1.6
2022-08-14T04:36:10.557Z,1.5
2022-08-14T04:37:22.288Z,1.2
2022-08-14T04:38:37.364Z,2.4
2022-08-14T04:39:41.788Z,2.4
2022-08-14T04:40:50.255Z,1
2022-08-14T04:41:59.925Z,3.4
2022-08-14T04:43:08.607Z,1.2
2022-08-14T04:44:26.965Z,1.9
2022-08-14T04:45:30.017Z,1.3
2022-08-14T04:46:55.484Z,2
2022-08-14T04:47:53.619Z,1.8
2022-08-14T04:49:00.483Z,1.9
2022-08-14T04:50:08.791Z,1.5
2022-08-14T04:51:17.574Z,1.2
2022-08-14T04:52:26.232Z,1.3
2022-08-14T04:53:36.145Z,1.2
2022-08-14T04:54:46.542Z,1.8
2022-08-14T04:55:55.217Z,2
2022-08-14T04:57:02.901Z,2.5
2022-08-14T04:58:21.355Z,2.6
2022-08-14T04:59:22.259Z,2.3
2022-08-14T05:00:30.920Z,3.8
2022-08-14T05:01:40.394Z,1.8
2022-08-14T05:02:49.327Z,1.6
2022-08-14T05:03:58.976Z,2.1
2022-08-14T05:05:07.619Z,1.8
2022-08-14T05:06:37.407Z,1.9
2022-08-14T05:07:34.086Z,1.4
2022-08-14T05:08:43.553Z,2.3
2022-08-14T05:09:48.269Z,2
2022-08-14T05:10:57.927Z,1.2
2022-08-14T05:13:11.364Z,2.5
2022-08-14T05:13:18.296Z,1.7
2022-08-14T05:14:43.538Z,1.6
2022-08-14T05:15:39.781Z,1.5
2022-08-14T05:16:48.267Z,2.4
2022-08-14T05:17:58.803Z,1.3
2022-08-14T05:19:19.308Z,1.7
2022-08-14T05:21:04.572Z,2.2
2022-08-14T05:21:55.702Z,2.1
2022-08-14T05:22:40.817Z,2.4
2022-08-14T05:23:49.462Z,1.8
2022-08-14T05:25:00.163Z,1.9
2022-08-14T05:26:08.864Z,1.9
2022-08-14T05:27:17.518Z,1.5
2022-08-14T05:28:28.206Z,1.9
2022-08-14T05:29:36.888Z,1.8
2022-08-14T05:30:45.640Z,4.4
2022-08-14T05:31:56.003Z,3.2
2022-08-14T05:33:04.031Z,1.7
2022-08-14T05:34:14.702Z,2.3
2022-08-14T05:35:25.422Z,1.8
2022-08-14T05:36:36.238Z,1.5
2022-08-14T05:37:46.777Z,3.2
2022-08-14T05:38:56.429Z,2.8
2022-08-14T05:40:05.151Z,2.3
2022-08-14T05:41:15.757Z,2.3
2022-08-14T05:42:27.178Z,2.3
2022-08-14T05:43:40.635Z,2.2
2022-08-14T05:44:46.038Z,1.4
2022-08-14T05:45:52.486Z,1.3
2022-08-14T05:47:02.159Z,1.2
2022-08-14T05:48:11.849Z,1
2022-08-14T05:49:21.512Z,2.2
2022-08-14T05:50:32.180Z,1.4
2022-08-14T05:51:41.888Z,1.7
2022-08-14T05:52:51.919Z,2.4
2022-08-14T05:54:13.182Z,2.6
2022-08-14T05:55:08.949Z,2.1
2022-08-14T05:56:18.636Z,1.5
2022-08-14T05:57:27.289Z,1.6
2022-08-14T05:58:40.864Z,2.2
2022-08-14T05:59:47.696Z,1.5
2022-08-14T06:00:56.384Z,1.5
2022-08-14T06:02:06.122Z,1.7
2022-08-14T06:03:14.735Z,2
2022-08-14T06:04:24.416Z,1.9
2022-08-14T06:05:35.175Z,1.6
2022-08-14T06:06:43.775Z,0.9
2022-08-14T06:07:53.429Z,1
2022-08-14T06:09:04.112Z,4.4
2022-08-14T06:10:13.778Z,4.5
2022-08-14T06:11:30.870Z,3.7
2022-08-14T06:13:00.200Z,4.5
2022-08-14T06:13:45.936Z,5
2022-08-14T06:14:55.409Z,6.8
2022-08-14T06:16:04.117Z,5.2
2022-08-14T06:17:15.800Z,8.1
2022-08-14T06:18:25.096Z,5.4
2022-08-14T06:19:33.210Z,2.7
2022-08-14T06:20:42.931Z,2.8
2022-08-14T06:21:58.558Z,2.6
2022-08-14T06:23:01.297Z,1.8
2022-08-14T06:24:18.197Z,2.3
2022-08-14T06:25:20.639Z,1.9
2022-08-14T06:26:30.723Z,1.3
2022-08-14T06:27:38.955Z,2.3
2022-08-14T06:28:51.912Z,1.9
2022-08-14T06:29:59.340Z,1.4
2022-08-14T06:31:07.980Z,1.2
2022-08-14T06:32:37.227Z,0.7
2022-08-14T06:33:30.024Z,1.7
2022-08-14T06:35:01.900Z,1.9
2022-08-14T06:35:48.627Z,0.9
2022-08-14T06:36:58.387Z,1.1
2022-08-14T06:38:08.086Z,2.1
2022-08-14T06:39:18.819Z,2
2022-08-14T06:40:29.617Z,1
2022-08-14T06:41:57.401Z,0.8
2022-08-14T06:42:50.929Z,1.5
2022-08-14T06:43:59.668Z,1.2
2022-08-14T06:45:08.452Z,1
2022-08-14T06:46:17.483Z,0.8
2022-08-14T06:47:26.830Z,1.1
2022-08-14T06:48:36.506Z,0.9
2022-08-14T06:49:48.614Z,0.7
2022-08-14T06:50:54.830Z,1.3
2022-08-14T06:52:05.569Z,1.8
2022-08-14T06:53:14.241Z,0.6
2022-08-14T06:54:31.469Z,1.9
2022-08-14T06:55:36.949Z,1.8
2022-08-14T06:56:44.135Z,0.9
2022-08-14T06:57:54.040Z,0.4
2022-08-14T06:59:02.703Z,1
2022-08-14T07:00:15.223Z,0.7
2022-08-14T07:01:26.660Z,3.3
2022-08-14T07:02:33.682Z,0.7
2022-08-14T07:03:43.346Z,1.1
2022-08-14T07:04:54.049Z,1.5
2022-08-14T07:06:02.682Z,3.6
2022-08-14T07:07:13.377Z,0.9
2022-08-14T07:08:23.044Z,0.6
2022-08-14T07:09:40.684Z,1.2
2022-08-14T07:10:42.399Z,1
2022-08-14T07:11:51.136Z,1.2
2022-08-14T07:13:03.829Z,2
2022-08-14T07:14:10.484Z,1
2022-08-14T07:15:20.168Z,0.7
2022-08-14T07:16:28.924Z,0.8
2022-08-14T07:17:38.597Z,1.1
2022-08-14T07:18:50.841Z,1.1
2022-08-14T07:19:58.965Z,0.5
2022-08-14T07:21:07.671Z,0.8
2022-08-14T07:22:17.534Z,0.2
2022-08-14T07:23:26.050Z,1.6
2022-08-14T07:24:36.737Z,0.9
2022-08-14T07:25:45.410Z,0.7
2022-08-14T07:26:53.091Z,0.9
2022-08-14T07:28:02.781Z,0.9
2022-08-14T07:29:12.404Z,0.5
2022-08-14T07:30:33.613Z,1.3
2022-08-14T07:31:33.783Z,0.7
2022-08-14T07:32:42.453Z,0.8
2022-08-14T07:33:52.143Z,0.9
2022-08-14T07:35:00.810Z,0.5
2022-08-14T07:36:26.831Z,0.4
2022-08-14T07:37:21.116Z,0.5
2022-08-14T07:38:35.621Z,0.8
2022-08-14T07:39:39.479Z,0.1
2022-08-14T07:40:52.906Z,0.6
2022-08-14T07:41:59.726Z,0.8
2022-08-14T07:43:13.521Z,1.5
2022-08-14T07:44:22.674Z,0.2
2022-08-14T07:45:31.966Z,0.8
2022-08-14T07:46:39.465Z,0.4
2022-08-14T07:47:48.123Z,0.2
2022-08-14T07:48:56.795Z,0.6
2022-08-14T07:50:06.491Z,0.7
2022-08-14T07:51:16.151Z,0.4
2022-08-14T07:52:30.238Z,0.2
2022-08-14T07:53:39.392Z,0.6
2022-08-14T07:54:47.211Z,0.2
2022-08-14T07:56:00.109Z,0.2
2022-08-14T07:57:11.997Z,0.8
2022-08-14T07:58:21.246Z,0.7
2022-08-14T07:59:40.675Z,0.3
2022-08-14T08:00:38.347Z,0.1
2022-08-14T08:01:51.164Z,0.9
2022-08-14T08:03:00.171Z,0.5
2022-08-14T08:04:16.506Z,0.5
2022-08-14T08:05:19.069Z,0.2
2022-08-14T08:06:27.738Z,0.4
2022-08-14T08:07:39.108Z,0.7
2022-08-14T08:08:47.248Z,0.8
2022-08-14T08:09:57.883Z,0.2
2022-08-14T08:11:08.559Z,0.5
2022-08-14T08:12:18.078Z,0.3
2022-08-14T08:13:28.660Z,0.3
2022-08-14T08:14:55.978Z,0.2
2022-08-14T08:15:48.075Z,0.8
2022-08-14T08:16:55.757Z,1.2
2022-08-14T08:18:05.484Z,0.9
2022-08-14T08:19:16.113Z,0.2
2022-08-14T08:20:27.326Z,0.7
2022-08-14T08:21:36.471Z,0.5
2022-08-14T08:22:48.199Z,0
2022-08-14T08:23:57.820Z,1.3
2022-08-14T08:25:11.079Z,0.3
2022-08-14T08:26:16.195Z,0.4
2022-08-14T08:27:25.830Z,0.7
2022-08-14T08:28:36.159Z,0.3
2022-08-14T08:29:51.252Z,0.7
2022-08-14T08:31:02.987Z,0.1
2022-08-14T08:32:13.625Z,0.1
2022-08-14T08:33:24.325Z,0.4
2022-08-14T08:34:33.672Z,0.3
2022-08-14T08:35:46.706Z,0.3
2022-08-14T08:36:54.066Z,0.4
2022-08-14T08:38:03.770Z,0.3
2022-08-14T08:39:18.982Z,0.7
2022-08-14T08:40:31.147Z,1.3
2022-08-14T08:41:35.669Z,0.3
2022-08-14T08:42:45.612Z,0.4
2022-08-14T08:43:56.119Z,0.2
2022-08-14T08:45:04.753Z,0.2
2022-08-14T08:46:18.765Z,0.2
2022-08-14T08:47:25.033Z,0.2
2022-08-14T08:48:36.387Z,0.1
2022-08-14T08:49:48.620Z,0.2
2022-08-14T08:50:56.205Z,0.4
2022-08-14T08:52:05.872Z,0.2
2022-08-14T08:53:15.568Z,0.3
2022-08-14T08:54:26.531Z,0.6
2022-08-14T08:55:36.943Z,0.2
2022-08-14T08:56:45.616Z,1.3
2022-08-14T08:57:55.246Z,0.2
2022-08-14T08:59:04.946Z,0.3
2022-08-14T09:00:24.211Z,0.7
2022-08-14T09:01:26.318Z,0.6
2022-08-14T09:02:34.952Z,0.5
2022-08-14T09:03:44.092Z,0.6
2022-08-14T09:04:54.242Z,0.3
2022-08-14T09:06:03.063Z,0.5
2022-08-14T09:07:13.734Z,0.3
2022-08-14T09:08:26.831Z,0.6
2022-08-14T09:09:33.245Z,0.2
2022-08-14T09:10:42.655Z,0.4
2022-08-14T09:11:51.315Z,0.7
2022-08-14T09:13:00.971Z,0.7
2022-08-14T09:14:09.646Z,0.6
2022-08-14T09:15:19.325Z,0.4
2022-08-14T09:16:30.039Z,0.3
2022-08-14T09:17:40.243Z,0.6
2022-08-14T09:18:48.377Z,0.1
2022-08-14T09:20:01.837Z,0.1
2022-08-14T09:21:09.672Z,0.5
2022-08-14T09:22:34.750Z,0.8
2022-08-14T09:23:34.719Z,1.7
2022-08-14T09:24:43.868Z,1.1
2022-08-14T09:25:59.255Z,0.2
2022-08-14T09:27:00.879Z,0.3
2022-08-14T09:28:08.537Z,0.4
2022-08-14T09:29:17.236Z,0.3
2022-08-14T09:30:31.777Z,1.1
2022-08-14T09:31:42.747Z,0.3
2022-08-14T09:32:58.536Z,0.4
2022-08-14T09:33:59.053Z,0.5
2022-08-14T09:35:09.781Z,0.3
2022-08-14T09:36:19.445Z,0.2
2022-08-14T09:37:29.283Z,0.1
2022-08-14T09:38:40.645Z,0.5
2022-08-14T09:39:46.677Z,0.3
2022-08-14T09:40:57.318Z,0.3
2022-08-14T09:42:17.296Z,0.5
2022-08-14T09:43:19.947Z,0.3
2022-08-14T09:44:27.530Z,0.3
2022-08-14T09:45:39.912Z,0.3
2022-08-14T09:46:49.923Z,0.7
2022-08-14T09:47:58.173Z,0.2
2022-08-14T09:49:06.912Z,0.2
2022-08-14T09:50:17.709Z,0.7
2022-08-14T09:51:32.568Z,0.4
2022-08-14T09:52:37.047Z,0.1
2022-08-14T09:54:13.703Z,0.1
2022-08-14T09:54:58.446Z,0.2
2022-08-14T09:56:09.990Z,0.5
2022-08-14T09:57:18.950Z,0.2
2022-08-14T09:58:27.612Z,8.2
2022-08-14T09:59:37.272Z,0.4
2022-08-14T10:00:45.969Z,0.1
2022-08-14T10:01:54.626Z,0.5
2022-08-14T10:03:05.072Z,0.6
2022-08-14T10:04:15.026Z,0.9
2022-08-14T10:05:23.730Z,0.7
2022-08-14T10:06:32.414Z,0.9
2022-08-14T10:07:41.389Z,0.2
2022-08-14T10:08:51.939Z,0.3
2022-08-14T10:10:02.092Z,0.6
2022-08-14T10:11:11.239Z,1.5
2022-08-14T10:12:28.926Z,0.4
2022-08-14T10:13:37.116Z,0.3
2022-08-14T10:14:42.242Z,0.7
2022-08-14T10:15:53.012Z,0.4
2022-08-14T10:17:02.667Z,1.5
2022-08-14T10:18:17.373Z,0.3
2022-08-14T10:19:23.005Z,0.3
2022-08-14T10:20:39.239Z,0.9
2022-08-14T10:21:58.153Z,0.6
2022-08-14T10:23:11.672Z,0.9
2022-08-14T10:24:04.761Z,1.9
2022-08-14T10:25:15.639Z,0.4
2022-08-14T10:26:28.080Z,0.6
2022-08-14T10:27:35.792Z,0.8
2022-08-14T10:29:14.224Z,0.5
2022-08-14T10:29:54.171Z,0.7
2022-08-14T10:31:04.954Z,0.1
2022-08-14T10:32:17.488Z,0.1
2022-08-14T10:33:25.413Z,0.8
2022-08-14T10:34:35.837Z,0.1
2022-08-14T10:35:47.783Z,0.4
2022-08-14T10:37:02.283Z,0
2022-08-14T10:38:07.312Z,0.1
2022-08-14T10:39:14.831Z,0.2
2022-08-14T10:40:39.080Z,0.5
2022-08-14T10:41:35.195Z,0.8
2022-08-14T10:42:46.039Z,0.3
2022-08-14T10:43:54.602Z,1.1
2022-08-14T10:45:04.363Z,0.6
2022-08-14T10:46:22.234Z,0.3
2022-08-14T10:47:37.867Z,0.3
2022-08-14T10:48:36.687Z,0.2
2022-08-14T10:49:45.934Z,0.3
2022-08-14T10:50:55.757Z,0.2
2022-08-14T10:52:04.453Z,0.6
2022-08-14T10:53:14.137Z,0.5
2022-08-14T10:54:35.674Z,0.1
2022-08-14T10:55:34.404Z,0.3
2022-08-14T10:56:45.177Z,0.1
2022-08-14T10:57:52.887Z,0.5
2022-08-14T10:59:02.579Z,0.2
2022-08-14T11:00:11.266Z,0.9
2022-08-14T11:01:20.017Z,0.1
2022-08-14T11:02:36.010Z,0.5
2022-08-14T11:03:55.544Z,0.4
2022-08-14T11:04:51.139Z,0.9
2022-08-14T11:06:00.809Z,0.1
2022-08-14T11:07:09.479Z,0.3
2022-08-14T11:08:19.188Z,1.2
2022-08-14T11:09:31.617Z,0.2
2022-08-14T11:10:39.578Z,0.4
2022-08-14T11:11:49.343Z,0.1
2022-08-14T11:12:59.989Z,0.2
2022-08-14T11:14:10.687Z,0.7
2022-08-14T11:15:18.363Z,0.5
2022-08-14T11:16:29.010Z,0.4
2022-08-14T11:17:38.783Z,0
2022-08-14T11:18:51.018Z,0.5
2022-08-14T11:20:00.130Z,0.6
2022-08-14T11:21:09.337Z,0.3
2022-08-14T11:22:52.995Z,0.3
2022-08-14T11:23:38.016Z,0.4
2022-08-14T11:24:51.070Z,0.4
2022-08-14T11:25:53.097Z,0.2
2022-08-14T11:27:00.245Z,0.2
2022-08-14T11:28:11.183Z,0.2
2022-08-14T11:29:21.579Z,0.2
2022-08-14T11:30:49.462Z,0.5
2022-08-14T11:31:41.929Z,2.7
2022-08-14T11:32:51.703Z,0.6
2022-08-14T11:34:00.348Z,0.1
2022-08-14T11:35:11.016Z,0.3
2022-08-14T11:36:19.710Z,1.4
2022-08-14T11:37:36.524Z,0.2
2022-08-14T11:38:40.175Z,0.6
2022-08-14T11:39:49.863Z,0.1
2022-08-14T11:40:58.496Z,0.2
2022-08-14T11:42:55.848Z,0.6
2022-08-14T11:43:17.970Z,0.2
2022-08-14T11:44:45.236Z,0.1
2022-08-14T11:45:39.290Z,0.5
2022-08-14T11:46:47.957Z,0.2
2022-08-14T11:48:10.946Z,0.1
2022-08-14T11:49:08.465Z,0.6
2022-08-14T11:50:24.871Z,0.6
2022-08-14T11:51:30.517Z,0.4
2022-08-14T11:52:44.634Z,0.3
2022-08-14T11:53:48.258Z,0.2
2022-08-14T11:54:56.992Z,0.9
2022-08-14T11:56:06.652Z,0.3
2022-08-14T11:57:18.717Z,0.5
2022-08-14T11:58:26.957Z,0.4
2022-08-14T11:59:38.392Z,0.7
2022-08-14T12:00:47.377Z,0.2
2022-08-14T12:01:56.051Z,0.1
2022-08-14T12:03:06.350Z,0.2
2022-08-14T12:04:21.449Z,0.9
2022-08-14T12:05:25.206Z,0.3
2022-08-14T12:06:38.488Z,0.6
2022-08-14T12:07:48.179Z,0.3
2022-08-14T12:08:55.177Z,0.3
2022-08-14T12:10:25.367Z,0.6
2022-08-14T12:11:13.485Z,0.3
2022-08-14T12:12:34.867Z,0.7
2022-08-14T12:13:32.845Z,0.3
2022-08-14T12:14:44.348Z,0.4
2022-08-14T12:15:53.195Z,0.8
2022-08-14T12:17:02.878Z,0.2
2022-08-14T12:18:19.280Z,0.3
2022-08-14T12:19:23.393Z,0
2022-08-14T12:20:33.080Z,0.6
2022-08-14T12:21:46.556Z,0.4
2022-08-14T12:22:54.918Z,0.3
2022-08-14T12:24:02.191Z,0.1
2022-08-14T12:25:11.879Z,0.1
2022-08-14T12:26:31.760Z,0.1
2022-08-14T12:27:31.179Z,0
2022-08-14T12:28:59.521Z,0.3
2022-08-14T12:29:52.712Z,0.4
2022-08-14T12:31:02.402Z,0.3
2022-08-14T12:32:12.701Z,0.1
2022-08-14T12:33:19.831Z,0
2022-08-14T12:34:30.564Z,0.4
2022-08-14T12:35:40.330Z,0.9
2022-08-14T12:36:50.130Z,0.1
2022-08-14T12:37:59.846Z,0.9
2022-08-14T12:39:07.670Z,0.5
2022-08-14T12:40:19.549Z,0.5
2022-08-14T12:41:28.346Z,0.2
2022-08-14T12:42:41.835Z,0.4
2022-08-14T12:43:49.364Z,0.1
2022-08-14T12:44:58.044Z,0.6
2022-08-14T12:46:08.716Z,0.1
2022-08-14T12:47:19.490Z,0.4
2022-08-14T12:48:31.315Z,0.5
2022-08-14T12:49:39.900Z,0
2022-08-14T12:50:49.777Z,0.2
2022-08-14T12:51:58.246Z,0.1
2022-08-14T12:53:14.401Z,0.7
2022-08-14T12:54:26.110Z,0.1
2022-08-14T12:55:32.457Z,0
2022-08-14T12:56:39.914Z,1.1
2022-08-14T12:57:49.317Z,0.4
2022-08-14T12:58:59.353Z,1
2022-08-14T13:00:22.257Z,0.6
2022-08-14T13:01:20.682Z,0.6
2022-08-14T13:02:29.344Z,0.2
2022-08-14T13:03:38.030Z,1.2
2022-08-14T13:04:46.867Z,0.2
2022-08-14T13:05:55.534Z,0.5
2022-08-14T13:07:04.186Z,0.2
2022-08-14T13:08:32.057Z,0.4
2022-08-14T13:09:25.498Z,0
2022-08-14T13:10:46.419Z,0.4
2022-08-14T13:11:46.861Z,0.1
2022-08-14T13:13:12.923Z,0.3
2022-08-14T13:14:08.195Z,0.2
2022-08-14T13:15:19.365Z,0.3
2022-08-14T13:16:33.882Z,0.3
2022-08-14T13:17:39.290Z,0
2022-08-14T13:18:48.973Z,1
2022-08-14T13:19:59.619Z,0.3
2022-08-14T13:21:08.329Z,0.1
2022-08-14T13:22:19.681Z,0.1
2022-08-14T13:23:30.807Z,0.2
2022-08-14T13:24:38.468Z,0.5
2022-08-14T13:25:55.712Z,0.2
2022-08-14T13:26:58.829Z,0.6
2022-08-14T13:28:10.997Z,0.1
2022-08-14T13:29:18.233Z,2.6
2022-08-14T13:30:27.892Z,0.2
2022-08-14T13:31:36.559Z,0.3
2022-08-14T13:32:47.421Z,0.2
2022-08-14T13:33:56.931Z,0.6
2022-08-14T13:35:10.583Z,0.1
2022-08-14T13:36:24.383Z,0.6
2022-08-14T13:37:26.967Z,0.1
2022-08-14T13:38:36.640Z,0
2022-08-14T13:39:45.327Z,0.1
2022-08-14T13:40:54.959Z,0.4
2022-08-14T13:42:04.643Z,0.3
2022-08-14T13:43:14.316Z,0.6
2022-08-14T13:44:24.181Z,0.4
2022-08-14T13:45:59.518Z,0.5
2022-08-14T13:46:44.397Z,0.3
2022-08-14T13:47:55.063Z,0.9
2022-08-14T13:49:03.725Z,0.5
2022-08-14T13:50:13.452Z,0.2
2022-08-14T13:51:24.247Z,0.2
2022-08-14T13:52:48.589Z,0.1
2022-08-14T13:53:49.459Z,0.5
2022-08-14T13:54:55.682Z,0.6
2022-08-14T13:56:02.208Z,0.6
2022-08-14T13:57:11.647Z,0.1
2022-08-14T13:58:30.191Z,0.4
2022-08-14T13:59:37.599Z,0.1
2022-08-14T14:00:51.932Z,0.3
2022-08-14T14:01:52.302Z,0.8
2022-08-14T14:03:01.974Z,0.2
2022-08-14T14:04:11.389Z,0.7
2022-08-14T14:05:20.934Z,0.3
2022-08-14T14:06:30.029Z,0.6
2022-08-14T14:07:39.309Z,0.1
2022-08-14T14:08:49.554Z,0.9
2022-08-14T14:09:59.289Z,2.8
2022-08-14T14:11:09.003Z,0.2
2022-08-14T14:12:36.811Z,0.3
2022-08-14T14:13:29.448Z,0.5
2022-08-14T14:14:45.359Z,0.5
2022-08-14T14:15:58.116Z,0.2
2022-08-14T14:17:00.936Z,0.2
2022-08-14T14:18:15.191Z,0.2
2022-08-14T14:19:22.323Z,0.7
2022-08-14T14:20:34.090Z,0.8
2022-08-14T14:21:43.644Z,0.2
2022-08-14T14:23:01.115Z,0
2022-08-14T14:24:03.949Z,0.1
2022-08-14T14:25:13.637Z,0.4
2022-08-14T14:26:24.352Z,0.1
2022-08-14T14:27:41.481Z,0
2022-08-14T14:28:44.808Z,0.2
2022-08-14T14:29:55.549Z,0.3
2022-08-14T14:31:06.283Z,0.3
2022-08-14T14:32:17.419Z,0.4
2022-08-14T14:33:45.535Z,0.6
2022-08-14T14:34:36.151Z,0.1
2022-08-14T14:35:44.805Z,1
2022-08-14T14:36:55.421Z,1.4
2022-08-14T14:38:05.167Z,0.1
2022-08-14T14:39:18.115Z,0.1
2022-08-14T14:40:51.125Z,0.1
2022-08-14T14:41:38.355Z,0.6
2022-08-14T14:42:45.988Z,0.4
2022-08-14T14:43:56.591Z,0.6
2022-08-14T14:45:06.334Z,0.5
2022-08-14T14:46:16.366Z,0.9
2022-08-14T14:47:25.716Z,0.4
2022-08-14T14:48:36.484Z,0.2
2022-08-14T14:49:51.686Z,0.8
2022-08-14T14:50:56.900Z,0.3
2022-08-14T14:52:05.604Z,0.8
2022-08-14T14:53:15.301Z,0.1
2022-08-14T14:54:31.428Z,0.3
2022-08-14T14:55:43.196Z,0.1
2022-08-14T14:56:48.445Z,0.5
2022-08-14T14:57:55.378Z,0.3
2022-08-14T14:59:04.829Z,0.4
2022-08-14T15:00:18.507Z,0.3
2022-08-14T15:01:25.323Z,1.2
2022-08-14T15:02:36.606Z,0.2
2022-08-14T15:03:44.868Z,0.3
2022-08-14T15:04:52.543Z,0.3
2022-08-14T15:06:02.255Z,0.5
2022-08-14T15:07:12.463Z,0.4
2022-08-14T15:08:26.505Z,0.9
2022-08-14T15:09:32.366Z,0.7
2022-08-14T15:10:43.102Z,0.5
2022-08-14T15:11:53.829Z,0.4
2022-08-14T15:13:04.725Z,0.1
2022-08-14T15:14:54.172Z,0.4
2022-08-14T15:15:25.064Z,0.4
2022-08-14T15:16:33.814Z,0.1
2022-08-14T15:17:43.648Z,0.5
2022-08-14T15:18:53.370Z,0.3
2022-08-14T15:20:03.086Z,0.3
2022-08-14T15:21:10.741Z,1
2022-08-14T15:22:20.399Z,0.6
2022-08-14T15:23:32.188Z,0.1
2022-08-14T15:24:41.839Z,0.2
2022-08-14T15:25:52.999Z,0.6
2022-08-14T15:27:02.239Z,0.2
2022-08-14T15:28:11.021Z,0
2022-08-14T15:29:20.691Z,0.1
2022-08-14T15:30:32.382Z,0.4
2022-08-14T15:31:40.052Z,0.6
2022-08-14T15:32:49.808Z,0.4
2022-08-14T15:34:00.706Z,0.6
2022-08-14T15:35:09.161Z,0.3
2022-08-14T15:36:25.802Z,0.7
2022-08-14T15:37:32.603Z,0.1
2022-08-14T15:38:41.118Z,0.9
2022-08-14T15:39:50.281Z,0.2
2022-08-14T15:40:59.823Z,0.4
2022-08-14T15:42:15.116Z,0.1
2022-08-14T15:43:19.242Z,0.6
2022-08-14T15:44:34.124Z,0.7
2022-08-14T15:45:40.628Z,0.6
2022-08-14T15:46:50.386Z,0.2
2022-08-14T15:48:00.152Z,0.3
2022-08-14T15:49:08.869Z,0.4
2022-08-14T15:50:16.695Z,0.3
2022-08-14T15:51:27.897Z,0.4
2022-08-14T15:52:43.143Z,0.7
2022-08-14T15:53:46.582Z,0
2022-08-14T15:54:56.398Z,0.9
2022-08-14T15:56:07.132Z,0.5
2022-08-14T15:57:15.850Z,0.1
2022-08-14T15:58:25.529Z,0.7
2022-08-14T15:59:33.225Z,0.3
2022-08-14T16:00:44.047Z,0.8
2022-08-14T16:01:55.046Z,0.1
2022-08-14T16:03:03.273Z,0.7
2022-08-14T16:04:17.395Z,0.8
2022-08-14T16:05:24.553Z,0.1
2022-08-14T16:06:33.316Z,0.6